createdAt,value
2023-03-17T00:00:23.826Z,6.20
2023-03-17T00:01:56.957Z,7.90
2023-03-17T00:03:29.906Z,6.78
2023-03-17T00:05:01.700Z,6.72
2023-03-17T00:06:35.230Z,5.05
2023-03-17T00:08:17.899Z,7.15
2023-03-17T00:09:49.599Z,7.40
2023-03-17T00:11:21.382Z,6.65
2023-03-17T00:12:55.227Z,8.32
2023-03-17T00:14:27.043Z,9.85
2023-03-17T00:16:04.037Z,7.43
2023-03-17T00:17:36.661Z,6.30
2023-03-17T00:19:16.679Z,5.28
2023-03-17T00:20:48.644Z,6.45
2023-03-17T00:22:22.346Z,7.03
2023-03-17T00:23:54.954Z,7.57
2023-03-17T00:25:30.191Z,7.88
2023-03-17T00:27:02.406Z,7.55
2023-03-17T00:28:34.170Z,5.82
2023-03-17T00:30:06.501Z,8.02
2023-03-17T00:31:39.686Z,7.43
2023-03-17T00:33:12.569Z,6.10
2023-03-17T00:34:45.541Z,8.57
2023-03-17T00:36:19.918Z,7.90
2023-03-17T00:37:54.063Z,9.23
2023-03-17T00:39:25.938Z,6.95
2023-03-17T00:40:59.532Z,6.85
2023-03-17T00:42:31.218Z,7.20
2023-03-17T00:44:03.589Z,6.20
2023-03-17T00:45:35.914Z,6.05
2023-03-17T00:47:10.942Z,7.22
2023-03-17T00:48:45.093Z,7.28
2023-03-17T00:50:25.456Z,9.20
2023-03-17T00:51:57.245Z,5.47
2023-03-17T00:53:28.955Z,8.05
2023-03-17T00:55:00.962Z,5.82
2023-03-17T00:56:33.089Z,7.80
2023-03-17T00:58:13.917Z,8.73
2023-03-17T00:59:46.135Z,4.82
2023-03-17T01:01:18.643Z,8.70
2023-03-17T01:02:57.335Z,7.45
2023-03-17T01:04:29.065Z,6.35
2023-03-17T01:06:02.894Z,6.60
2023-03-17T01:07:35.182Z,7.60
2023-03-17T01:09:08.342Z,7.13
2023-03-17T01:10:40.063Z,9.38
2023-03-17T01:12:14.238Z,6.78
2023-03-17T01:13:46.913Z,6.97
2023-03-17T01:15:20.621Z,7.10
2023-03-17T01:16:55.373Z,6.93
2023-03-17T01:18:27.600Z,5.95
2023-03-17T01:19:59.533Z,7.45
2023-03-17T01:21:31.662Z,6.57
2023-03-17T01:23:04.193Z,6.45
2023-03-17T01:24:36.470Z,7.13
2023-03-17T01:26:08.385Z,7.60
2023-03-17T01:27:42.173Z,7.32
2023-03-17T01:29:16.625Z,8.38
2023-03-17T01:30:49.357Z,6.13
2023-03-17T01:32:22.564Z,6.22
2023-03-17T01:33:55.801Z,7.43
2023-03-17T01:35:32.182Z,8.07
2023-03-17T01:37:03.908Z,8.48
2023-03-17T01:38:35.990Z,7.57
2023-03-17T01:40:12.990Z,7.53
2023-03-17T01:41:45.676Z,9.35
2023-03-17T01:43:22.627Z,6.55
2023-03-17T01:45:06.224Z,8.50
2023-03-17T01:46:38.613Z,5.35
2023-03-17T01:48:10.583Z,7.10
2023-03-17T01:49:43.244Z,6.18
2023-03-17T01:51:21.103Z,6.88
2023-03-17T01:52:52.861Z,5.88
2023-03-17T01:54:50.491Z,5.78
2023-03-17T01:56:23.283Z,6.82
2023-03-17T01:57:56.488Z,6.68
2023-03-17T01:59:33.848Z,5.65
2023-03-17T02:01:07.520Z,6.47
2023-03-17T02:02:42.970Z,6.30
2023-03-17T02:04:16.308Z,5.82
2023-03-17T02:05:51.521Z,5.72
2023-03-17T02:07:26.721Z,7.78
2023-03-17T02:09:00.287Z,6.80
2023-03-17T02:10:32.460Z,4.65
2023-03-17T02:12:07.067Z,7.65
2023-03-17T02:13:39.068Z,6.43
2023-03-17T02:15:11.960Z,5.57
2023-03-17T02:16:45.359Z,5.63
2023-03-17T02:18:19.471Z,6.78
2023-03-17T02:19:51.968Z,8.50
2023-03-17T02:21:45.360Z,7.90
2023-03-17T02:23:22.517Z,6.65
2023-03-17T02:24:59.594Z,5.38
2023-03-17T02:26:34.518Z,7.25
2023-03-17T02:28:10.789Z,4.82
2023-03-17T02:29:42.653Z,7.75
2023-03-17T02:31:14.714Z,5.80
2023-03-17T02:32:47.436Z,5.53
2023-03-17T02:34:19.254Z,5.30
2023-03-17T02:35:51.285Z,6.85
2023-03-17T02:37:23.735Z,7.75
2023-03-17T02:38:57.709Z,6.88
2023-03-17T02:40:30.138Z,7.53
2023-03-17T02:42:02.093Z,5.07
2023-03-17T02:43:33.812Z,5.18
2023-03-17T02:45:07.071Z,5.57
2023-03-17T02:46:38.814Z,7.10
2023-03-17T02:48:10.965Z,7.00
2023-03-17T02:49:44.103Z,5.05
2023-03-17T02:51:16.328Z,6.22
2023-03-17T02:52:48.089Z,7.43
2023-03-17T02:54:20.066Z,5.70
2023-03-17T02:55:51.779Z,6.35
2023-03-17T02:57:25.198Z,7.28
2023-03-17T02:58:57.316Z,4.55
2023-03-17T03:00:30.328Z,5.13
2023-03-17T03:02:02.230Z,6.75
2023-03-17T03:03:33.992Z,4.00
2023-03-17T03:05:07.504Z,4.32
2023-03-17T03:06:39.957Z,5.32
2023-03-17T03:08:11.684Z,5.65
2023-03-17T03:09:43.426Z,6.70
2023-03-17T03:11:15.329Z,6.35
2023-03-17T03:12:47.519Z,5.50
2023-03-17T03:14:19.232Z,6.32
2023-03-17T03:15:51.106Z,5.03
2023-03-17T03:17:23.169Z,6.05
2023-03-17T03:18:54.944Z,6.90
2023-03-17T03:20:26.658Z,5.00
2023-03-17T03:21:58.385Z,5.95
2023-03-17T03:23:30.202Z,5.80
2023-03-17T03:25:01.969Z,5.70
2023-03-17T03:26:33.666Z,7.07
2023-03-17T03:28:08.207Z,6.05
2023-03-17T03:29:39.922Z,8.13
2023-03-17T03:31:11.835Z,7.35
2023-03-17T03:32:43.958Z,5.72
2023-03-17T03:34:16.300Z,7.32
2023-03-17T03:35:48.065Z,6.15
2023-03-17T03:37:19.911Z,6.88
2023-03-17T03:38:51.793Z,4.80
2023-03-17T03:40:24.296Z,5.45
2023-03-17T03:41:58.423Z,7.03
2023-03-17T03:43:30.247Z,7.90
2023-03-17T03:45:01.955Z,6.40
2023-03-17T03:46:33.711Z,7.68
2023-03-17T03:48:05.566Z,5.80
2023-03-17T03:49:37.257Z,7.63
2023-03-17T03:51:08.987Z,5.22
2023-03-17T03:52:40.936Z,6.15
2023-03-17T03:54:12.653Z,6.07
2023-03-17T03:55:44.376Z,5.65
2023-03-17T03:57:16.076Z,7.32
2023-03-17T03:58:47.789Z,7.95
2023-03-17T04:00:20.008Z,5.90
2023-03-17T04:01:51.734Z,9.05
2023-03-17T04:03:23.521Z,5.40
2023-03-17T04:04:55.746Z,7.13
2023-03-17T04:06:27.721Z,5.60
2023-03-17T04:07:59.452Z,8.40
2023-03-17T04:09:31.161Z,4.70
2023-03-17T04:11:02.867Z,5.82
2023-03-17T04:12:34.732Z,5.68
2023-03-17T04:14:06.607Z,5.55
2023-03-17T04:15:38.467Z,5.40
2023-03-17T04:17:11.479Z,5.13
2023-03-17T04:18:46.261Z,8.18
2023-03-17T04:20:18.718Z,5.95
2023-03-17T04:21:53.483Z,5.00
2023-03-17T04:23:26.248Z,5.68
2023-03-17T04:24:57.970Z,5.28
2023-03-17T04:26:29.678Z,7.18
2023-03-17T04:28:01.884Z,4.57
2023-03-17T04:29:33.961Z,4.57
2023-03-17T04:31:05.733Z,8.02
2023-03-17T04:32:38.315Z,5.50
2023-03-17T04:34:15.809Z,5.78
2023-03-17T04:35:47.542Z,8.82
2023-03-17T04:37:19.457Z,6.93
2023-03-17T04:38:51.174Z,6.07
2023-03-17T04:40:22.998Z,6.00
2023-03-17T04:41:54.797Z,6.40
2023-03-17T04:43:27.217Z,6.45
2023-03-17T04:44:59.194Z,7.30
2023-03-17T04:46:31.261Z,7.53
2023-03-17T04:48:03.028Z,10.55
2023-03-17T04:49:36.140Z,5.78
2023-03-17T04:51:09.277Z,6.43
2023-03-17T04:52:42.722Z,5.15
2023-03-17T04:54:14.445Z,7.53
2023-03-17T04:55:46.528Z,6.40
2023-03-17T04:57:18.342Z,4.97
2023-03-17T04:58:50.079Z,5.90
2023-03-17T05:00:21.958Z,5.85
2023-03-17T05:01:53.693Z,6.18
2023-03-17T05:03:27.645Z,5.38
2023-03-17T05:04:59.773Z,5.72
2023-03-17T05:06:31.602Z,6.03
2023-03-17T05:08:03.558Z,6.70
2023-03-17T05:09:35.297Z,7.05
2023-03-17T05:11:07.006Z,6.75
2023-03-17T05:12:38.690Z,6.85
2023-03-17T05:14:10.461Z,8.00
2023-03-17T05:15:48.308Z,7.05
2023-03-17T05:17:20.813Z,6.85
2023-03-17T05:18:52.528Z,7.18
2023-03-17T05:20:24.239Z,6.97
2023-03-17T05:21:56.256Z,6.55
2023-03-17T05:23:28.675Z,6.65
2023-03-17T05:25:00.663Z,5.90
2023-03-17T05:26:32.810Z,6.35
2023-03-17T05:28:04.652Z,5.47
2023-03-17T05:29:36.370Z,5.03
2023-03-17T05:31:10.902Z,6.05
2023-03-17T05:32:43.210Z,7.60
2023-03-17T05:34:16.075Z,6.50
2023-03-17T05:35:47.886Z,5.80
2023-03-17T05:37:19.630Z,6.53
2023-03-17T05:38:52.510Z,4.88
2023-03-17T05:40:24.484Z,8.13
2023-03-17T05:41:57.244Z,5.72
2023-03-17T05:43:28.953Z,6.82
2023-03-17T05:45:00.696Z,7.53
2023-03-17T05:46:32.772Z,8.18
2023-03-17T05:48:05.022Z,5.28
2023-03-17T05:49:37.064Z,7.28
2023-03-17T05:51:08.831Z,8.05
2023-03-17T05:52:40.733Z,6.78
2023-03-17T05:54:12.532Z,7.68
2023-03-17T05:55:44.713Z,7.40
2023-03-17T05:57:16.587Z,6.78
2023-03-17T05:58:48.313Z,6.60
2023-03-17T06:00:21.695Z,7.20
2023-03-17T06:01:53.732Z,5.47
2023-03-17T06:03:25.551Z,8.30
2023-03-17T06:04:57.881Z,6.90
2023-03-17T06:06:29.578Z,7.15
2023-03-17T06:08:01.366Z,5.43
2023-03-17T06:09:33.809Z,7.13
2023-03-17T06:11:05.708Z,5.63
2023-03-17T06:12:37.703Z,6.43
2023-03-17T06:14:09.491Z,5.95
2023-03-17T06:15:43.195Z,6.43
2023-03-17T06:17:15.028Z,10.85
2023-03-17T06:18:46.726Z,7.05
2023-03-17T06:20:19.328Z,5.13
2023-03-17T06:21:51.029Z,8.50
2023-03-17T06:23:23.915Z,7.47
2023-03-17T06:24:56.159Z,6.35
2023-03-17T06:26:28.390Z,7.65
2023-03-17T06:28:03.901Z,8.35
2023-03-17T06:29:35.824Z,6.47
2023-03-17T06:31:08.968Z,6.22
2023-03-17T06:32:40.791Z,6.60
2023-03-17T06:34:12.741Z,6.07
2023-03-17T06:35:44.715Z,5.43
2023-03-17T06:37:16.768Z,8.85
2023-03-17T06:38:48.477Z,6.38
2023-03-17T06:40:20.486Z,5.25
2023-03-17T06:41:52.333Z,7.25
2023-03-17T06:43:25.022Z,4.97
2023-03-17T06:44:56.915Z,7.13
2023-03-17T06:46:28.786Z,8.02
2023-03-17T06:48:00.570Z,6.22
2023-03-17T06:49:32.542Z,5.60
2023-03-17T06:51:04.531Z,5.88
2023-03-17T06:52:36.923Z,7.70
2023-03-17T06:54:09.052Z,7.03
2023-03-17T06:55:42.215Z,6.95
2023-03-17T06:57:14.244Z,5.90
2023-03-17T06:58:47.109Z,5.68
2023-03-17T07:00:19.814Z,7.68
2023-03-17T07:01:52.277Z,5.32
2023-03-17T07:03:25.588Z,5.40
2023-03-17T07:04:58.332Z,6.68
2023-03-17T07:06:31.103Z,7.18
2023-03-17T07:08:02.795Z,5.18
2023-03-17T07:09:35.614Z,6.03
2023-03-17T07:11:07.560Z,6.03
2023-03-17T07:12:39.652Z,7.63
2023-03-17T07:14:11.370Z,6.82
2023-03-17T07:15:45.400Z,7.07
2023-03-17T07:17:17.183Z,5.63
2023-03-17T07:18:48.975Z,8.18
2023-03-17T07:20:21.267Z,6.07
2023-03-17T07:21:55.840Z,6.53
2023-03-17T07:23:29.413Z,6.22
2023-03-17T07:25:01.262Z,6.80
2023-03-17T07:26:33.026Z,6.95
2023-03-17T07:28:04.921Z,6.93
2023-03-17T07:29:36.812Z,6.88
2023-03-17T07:31:10.667Z,5.85
2023-03-17T07:32:43.466Z,5.90
2023-03-17T07:34:16.521Z,5.80
2023-03-17T07:35:49.656Z,5.07
2023-03-17T07:37:21.760Z,5.53
2023-03-17T07:38:53.475Z,6.07
2023-03-17T07:40:26.190Z,4.70
2023-03-17T07:41:57.908Z,9.35
2023-03-17T07:43:30.203Z,6.47
2023-03-17T07:45:02.705Z,8.80
2023-03-17T07:46:34.451Z,9.13
2023-03-17T07:48:07.124Z,6.07
2023-03-17T07:49:41.949Z,5.47
2023-03-17T07:51:16.710Z,5.88
2023-03-17T07:52:48.421Z,6.88
2023-03-17T07:54:20.257Z,5.20
2023-03-17T07:55:52.677Z,6.13
2023-03-17T07:57:25.556Z,7.10
2023-03-17T07:58:58.655Z,6.40
2023-03-17T08:00:31.153Z,7.57
2023-03-17T08:02:03.891Z,6.68
2023-03-17T08:03:38.716Z,7.15
2023-03-17T08:05:14.360Z,5.93
2023-03-17T08:06:46.999Z,7.35
2023-03-17T08:08:20.154Z,4.95
2023-03-17T08:09:52.795Z,8.75
2023-03-17T08:11:24.517Z,6.65
2023-03-17T08:12:56.522Z,4.28
2023-03-17T08:14:28.205Z,6.30
2023-03-17T08:16:00.913Z,6.50
2023-03-17T08:17:33.249Z,5.00
2023-03-17T08:19:06.387Z,5.35
2023-03-17T08:20:39.203Z,5.88
2023-03-17T08:22:11.088Z,7.97
2023-03-17T08:23:43.338Z,7.30
2023-03-17T08:25:15.539Z,6.43
2023-03-17T08:26:50.483Z,5.50
2023-03-17T08:28:22.278Z,6.95
2023-03-17T08:29:54.044Z,5.22
2023-03-17T08:31:26.009Z,5.80
2023-03-17T08:32:58.243Z,5.28
2023-03-17T08:34:30.109Z,4.32
2023-03-17T08:36:06.445Z,6.28
2023-03-17T08:37:38.266Z,4.55
2023-03-17T08:39:10.605Z,5.43
2023-03-17T08:40:42.866Z,4.45
2023-03-17T08:42:14.753Z,5.65
2023-03-17T08:43:47.933Z,5.18
2023-03-17T08:45:19.894Z,5.18
2023-03-17T08:46:52.184Z,5.00
2023-03-17T08:48:24.076Z,4.80
2023-03-17T08:49:56.431Z,6.88
2023-03-17T08:51:31.337Z,5.38
2023-03-17T08:53:03.090Z,4.45
2023-03-17T08:54:35.946Z,4.47
2023-03-17T08:56:08.596Z,5.38
2023-03-17T08:57:40.843Z,4.80
2023-03-17T08:59:13.157Z,4.78
2023-03-17T09:00:47.153Z,5.93
2023-03-17T09:02:19.211Z,4.00
2023-03-17T09:03:53.567Z,4.07
2023-03-17T09:05:25.392Z,3.92
2023-03-17T09:07:04.971Z,4.70
2023-03-17T09:08:40.051Z,6.40
2023-03-17T09:10:13.899Z,6.45
2023-03-17T09:11:45.595Z,5.38
2023-03-17T09:13:17.764Z,5.72
2023-03-17T09:14:50.559Z,3.65
2023-03-17T09:16:24.148Z,6.43
2023-03-17T09:17:55.985Z,7.47
2023-03-17T09:19:27.794Z,4.30
2023-03-17T09:20:59.917Z,5.25
2023-03-17T09:22:31.926Z,5.60
2023-03-17T09:24:03.806Z,5.15
2023-03-17T09:25:37.500Z,4.10
2023-03-17T09:27:09.342Z,6.28
2023-03-17T09:28:42.818Z,4.93
2023-03-17T09:30:14.878Z,4.25
2023-03-17T09:31:47.661Z,4.30
2023-03-17T09:33:19.379Z,5.15
2023-03-17T09:34:51.733Z,7.68
2023-03-17T09:36:24.313Z,6.53
2023-03-17T09:37:56.022Z,4.88
2023-03-17T09:39:27.844Z,5.65
2023-03-17T09:41:24.704Z,4.15
2023-03-17T09:43:12.954Z,6.43
2023-03-17T09:45:20.154Z,5.32
2023-03-17T09:47:08.593Z,4.80
2023-03-17T09:48:50.151Z,5.22
2023-03-17T09:50:33.098Z,4.00
2023-03-17T09:52:30.466Z,6.43
2023-03-17T09:54:04.915Z,5.45
2023-03-17T09:55:38.123Z,4.32
2023-03-17T09:57:19.340Z,5.80
2023-03-17T09:58:55.046Z,4.18
2023-03-17T10:00:31.296Z,5.07
2023-03-17T10:02:03.273Z,6.90
2023-03-17T10:03:37.610Z,5.20
2023-03-17T10:05:30.400Z,4.93
2023-03-17T10:07:05.736Z,4.53
2023-03-17T10:08:49.059Z,5.07
2023-03-17T10:11:03.473Z,2.72
2023-03-17T10:12:53.811Z,4.38
2023-03-17T10:14:36.302Z,3.72
2023-03-17T10:16:28.427Z,5.53
2023-03-17T10:18:00.455Z,3.60
2023-03-17T10:19:50.431Z,3.90
2023-03-17T10:21:27.380Z,3.47
2023-03-17T10:23:09.837Z,5.03
2023-03-17T10:24:47.889Z,3.42
2023-03-17T10:26:34.404Z,3.17
2023-03-17T10:28:25.088Z,5.20
2023-03-17T10:29:57.172Z,3.53
2023-03-17T10:31:33.345Z,4.25
2023-03-17T10:33:07.334Z,3.85
2023-03-17T10:34:41.593Z,3.10
2023-03-17T10:36:16.743Z,5.40
2023-03-17T10:37:48.540Z,4.43
2023-03-17T10:39:23.863Z,4.45
2023-03-17T10:41:08.417Z,4.85
2023-03-17T10:42:47.836Z,3.35
2023-03-17T10:44:34.424Z,3.38
2023-03-17T10:46:17.287Z,3.50
2023-03-17T10:47:50.231Z,3.35
2023-03-17T10:49:24.658Z,4.43
2023-03-17T10:50:58.868Z,3.88
2023-03-17T10:52:35.893Z,4.03
2023-03-17T10:54:11.377Z,3.72
2023-03-17T10:55:49.939Z,4.80
2023-03-17T10:57:22.240Z,3.97
2023-03-17T10:58:55.655Z,2.78
2023-03-17T11:00:33.932Z,4.68
2023-03-17T11:02:19.166Z,4.13
2023-03-17T11:03:51.133Z,3.20
2023-03-17T11:05:29.518Z,3.03
2023-03-17T11:07:07.990Z,4.13
2023-03-17T11:08:53.827Z,3.88
2023-03-17T11:10:27.454Z,4.07
2023-03-17T11:12:03.712Z,4.85
2023-03-17T11:13:35.482Z,3.65
2023-03-17T11:15:15.688Z,4.95
2023-03-17T11:17:02.731Z,4.13
2023-03-17T11:18:39.776Z,4.32
2023-03-17T11:20:27.710Z,3.75
2023-03-17T11:22:10.109Z,4.60
2023-03-17T11:24:02.545Z,4.45
2023-03-17T11:25:41.316Z,4.20
2023-03-17T11:27:29.360Z,3.20
2023-03-17T11:29:15.850Z,4.03
2023-03-17T11:31:32.326Z,4.15
2023-03-17T11:33:16.146Z,3.55
2023-03-17T11:35:00.196Z,4.30
2023-03-17T11:36:55.240Z,2.90
2023-03-17T11:38:31.009Z,4.68
2023-03-17T11:40:26.954Z,2.83
2023-03-17T11:41:58.821Z,5.05
2023-03-17T11:43:37.436Z,4.22
2023-03-17T11:45:21.306Z,4.07
2023-03-17T11:47:07.533Z,4.95
2023-03-17T11:49:03.768Z,2.88
2023-03-17T11:50:44.996Z,3.72
2023-03-17T11:52:32.879Z,2.75
2023-03-17T11:54:33.463Z,2.83
2023-03-17T11:56:21.256Z,4.75
2023-03-17T11:58:01.226Z,2.88
2023-03-17T11:59:58.346Z,2.97
2023-03-17T12:01:54.903Z,3.88
2023-03-17T12:03:53.136Z,4.78
2023-03-17T12:05:30.197Z,3.13
2023-03-17T12:07:11.981Z,4.28
2023-03-17T12:08:49.586Z,4.10
2023-03-17T12:10:41.852Z,3.60
2023-03-17T12:12:19.962Z,4.18
2023-03-17T12:14:01.133Z,6.32
2023-03-17T12:15:38.725Z,4.22
2023-03-17T12:17:30.487Z,4.28
2023-03-17T12:19:13.299Z,4.32
2023-03-17T12:20:51.592Z,3.05
2023-03-17T12:22:30.718Z,4.05
2023-03-17T12:24:50.429Z,3.33
2023-03-17T12:26:33.682Z,3.25
2023-03-17T12:28:16.502Z,4.25
2023-03-17T12:30:00.726Z,3.38
2023-03-17T12:31:39.352Z,3.53
2023-03-17T12:33:21.846Z,4.80
2023-03-17T12:34:59.998Z,4.68
2023-03-17T12:36:34.429Z,4.00
2023-03-17T12:38:18.586Z,6.18
2023-03-17T12:40:15.556Z,4.78
2023-03-17T12:41:53.847Z,4.13
2023-03-17T12:43:56.121Z,4.05
2023-03-17T12:45:46.364Z,4.65
2023-03-17T12:47:50.602Z,4.07
2023-03-17T12:49:53.635Z,4.40
2023-03-17T12:51:48.423Z,4.57
2023-03-17T12:53:30.661Z,4.07
2023-03-17T12:55:05.108Z,4.05
2023-03-17T12:56:39.610Z,5.10
2023-03-17T12:58:35.964Z,4.00
2023-03-17T13:00:29.737Z,4.55
2023-03-17T13:02:16.691Z,6.18
2023-03-17T13:04:02.521Z,3.10
2023-03-17T13:05:37.431Z,3.80
2023-03-17T13:07:15.364Z,4.65
2023-03-17T13:08:51.650Z,4.80
2023-03-17T13:10:42.128Z,3.90
2023-03-17T13:12:44.736Z,4.43
2023-03-17T13:14:27.229Z,5.85
2023-03-17T13:16:00.586Z,4.03
2023-03-17T13:17:33.484Z,4.50
2023-03-17T13:19:07.991Z,4.68
2023-03-17T13:20:42.694Z,11.90
2023-03-17T13:22:14.396Z,4.95
2023-03-17T13:24:19.348Z,3.15
2023-03-17T13:25:53.938Z,4.28
2023-03-17T13:27:31.965Z,3.78
2023-03-17T13:29:24.348Z,5.07
2023-03-17T13:31:09.155Z,4.38
2023-03-17T13:32:41.000Z,5.78
2023-03-17T13:34:15.264Z,5.32
2023-03-17T13:35:58.705Z,7.70
2023-03-17T13:37:59.728Z,12.98
2023-03-17T13:40:11.015Z,6.45
2023-03-17T13:42:15.664Z,8.35
2023-03-17T13:44:00.730Z,6.43
2023-03-17T13:45:40.660Z,7.88
2023-03-17T13:47:34.899Z,5.40
2023-03-17T13:49:18.797Z,5.50
2023-03-17T13:50:59.426Z,4.68
2023-03-17T13:52:38.265Z,5.10
2023-03-17T13:54:28.385Z,4.75
2023-03-17T13:56:22.520Z,6.70
2023-03-17T13:58:09.154Z,6.20
2023-03-17T13:59:57.725Z,7.68
2023-03-17T14:01:37.653Z,5.72
2023-03-17T14:03:20.092Z,6.00
2023-03-17T14:04:55.881Z,6.15
2023-03-17T14:06:31.691Z,4.78
2023-03-17T14:08:15.926Z,6.22
2023-03-17T14:09:53.523Z,4.35
2023-03-17T14:11:39.721Z,5.82
2023-03-17T14:13:25.973Z,6.57
2023-03-17T14:15:08.129Z,6.10
2023-03-17T14:16:59.102Z,6.07
2023-03-17T14:18:35.554Z,7.10
2023-03-17T14:20:13.071Z,7.82
2023-03-17T14:21:44.795Z,5.63
2023-03-17T14:23:18.083Z,5.55
2023-03-17T14:24:54.940Z,6.43
2023-03-17T14:26:31.308Z,5.38
2023-03-17T14:28:09.347Z,5.63
2023-03-17T14:29:43.724Z,5.93
2023-03-17T14:31:27.390Z,5.22
2023-03-17T14:33:06.543Z,7.45
2023-03-17T14:34:48.413Z,5.18
2023-03-17T14:36:20.670Z,6.15
2023-03-17T14:37:52.413Z,6.40
2023-03-17T14:39:26.029Z,6.60
2023-03-17T14:41:17.074Z,6.15
2023-03-17T14:42:49.373Z,6.72
2023-03-17T14:44:21.084Z,7.03
2023-03-17T14:46:04.626Z,5.20
2023-03-17T14:47:41.708Z,4.57
2023-03-17T14:49:17.461Z,7.05
2023-03-17T14:50:59.912Z,5.03
2023-03-17T14:52:33.201Z,5.85
2023-03-17T14:54:12.828Z,6.10
2023-03-17T14:55:45.701Z,7.60
2023-03-17T14:57:17.501Z,5.97
2023-03-17T14:58:51.659Z,7.88
2023-03-17T15:00:32.026Z,6.18
2023-03-17T15:02:23.825Z,7.82
2023-03-17T15:03:59.319Z,7.60
2023-03-17T15:05:43.316Z,6.78
2023-03-17T15:07:36.100Z,6.60
2023-03-17T15:09:38.296Z,6.65
2023-03-17T15:11:18.352Z,6.85
2023-03-17T15:13:00.716Z,7.65
2023-03-17T15:14:35.514Z,7.40
2023-03-17T15:16:15.225Z,8.55
2023-03-17T15:17:50.449Z,7.57
2023-03-17T15:19:29.995Z,8.98
2023-03-17T15:21:01.776Z,7.10
2023-03-17T15:22:36.222Z,10.73
2023-03-17T15:24:25.605Z,8.23
2023-03-17T15:25:57.413Z,6.68
2023-03-17T15:27:31.350Z,9.25
2023-03-17T15:29:03.201Z,7.07
2023-03-17T15:30:46.861Z,9.57
2023-03-17T15:32:22.283Z,6.95
2023-03-17T15:33:54.208Z,6.43
2023-03-17T15:35:27.391Z,9.13
2023-03-17T15:36:59.296Z,8.48
2023-03-17T15:38:31.928Z,7.13
2023-03-17T15:40:09.472Z,7.78
2023-03-17T15:41:41.391Z,7.78
2023-03-17T15:43:17.970Z,7.80
2023-03-17T15:44:49.832Z,8.52
2023-03-17T15:46:27.399Z,9.63
2023-03-17T15:47:59.595Z,8.25
2023-03-17T15:49:31.363Z,8.38
2023-03-17T15:51:03.509Z,6.40
2023-03-17T15:52:35.943Z,7.10
2023-03-17T15:54:12.939Z,7.43
2023-03-17T15:55:45.121Z,8.52
2023-03-17T15:57:17.358Z,6.60
2023-03-17T15:58:52.509Z,7.05
2023-03-17T16:00:30.055Z,7.25
2023-03-17T16:02:02.498Z,6.88
2023-03-17T16:03:37.167Z,9.60
2023-03-17T16:05:21.797Z,7.97
2023-03-17T16:06:53.535Z,7.20
2023-03-17T16:08:25.524Z,8.98
2023-03-17T16:09:57.955Z,7.65
2023-03-17T16:11:31.452Z,9.93
2023-03-17T16:13:03.257Z,8.80
2023-03-17T16:14:34.986Z,9.13
2023-03-17T16:16:10.413Z,6.90
2023-03-17T16:17:43.362Z,7.00
2023-03-17T16:19:21.797Z,7.07
2023-03-17T16:20:54.062Z,9.50
2023-03-17T16:22:31.804Z,9.82
2023-03-17T16:24:04.479Z,9.85
2023-03-17T16:25:36.929Z,8.77
2023-03-17T16:27:15.209Z,8.18
2023-03-17T16:28:49.146Z,7.72
2023-03-17T16:30:24.265Z,10.15
2023-03-17T16:31:56.318Z,9.13
2023-03-17T16:33:32.525Z,10.50
2023-03-17T16:35:13.041Z,9.02
2023-03-17T16:36:44.764Z,9.23
2023-03-17T16:38:19.508Z,10.65
2023-03-17T16:39:52.390Z,11.07
2023-03-17T16:41:27.758Z,7.93
2023-03-17T16:42:59.562Z,9.30
2023-03-17T16:44:31.587Z,6.65
2023-03-17T16:46:05.804Z,7.88
2023-03-17T16:47:37.593Z,9.80
2023-03-17T16:49:13.795Z,7.75
2023-03-17T16:50:45.572Z,6.90
2023-03-17T16:52:17.280Z,9.52
2023-03-17T16:53:49.021Z,8.77
2023-03-17T16:55:25.477Z,11.30
2023-03-17T16:56:57.589Z,8.82
2023-03-17T16:58:33.124Z,9.38
2023-03-17T17:00:07.098Z,9.63
2023-03-17T17:01:38.846Z,8.30
2023-03-17T17:03:11.318Z,8.50
2023-03-17T17:04:43.677Z,8.43
2023-03-17T17:06:15.614Z,8.75
2023-03-17T17:07:48.694Z,9.85
2023-03-17T17:09:20.461Z,10.13
2023-03-17T17:10:52.732Z,10.25
2023-03-17T17:12:24.886Z,12.10
2023-03-17T17:13:58.525Z,9.05
2023-03-17T17:15:31.912Z,10.80
2023-03-17T17:17:04.496Z,10.48
2023-03-17T17:18:37.896Z,11.10
2023-03-17T17:20:21.528Z,10.13
2023-03-17T17:21:53.813Z,10.75
2023-03-17T17:23:27.104Z,10.35
2023-03-17T17:24:58.899Z,8.70
2023-03-17T17:26:30.684Z,9.25
2023-03-17T17:28:03.122Z,10.48
2023-03-17T17:29:34.931Z,11.77
2023-03-17T17:31:08.510Z,10.35
2023-03-17T17:32:40.298Z,11.07
2023-03-17T17:34:12.009Z,9.02
2023-03-17T17:35:44.504Z,9.95
2023-03-17T17:37:17.037Z,10.60
2023-03-17T17:38:49.163Z,10.77
2023-03-17T17:40:24.593Z,10.52
2023-03-17T17:41:56.869Z,10.82
2023-03-17T17:43:29.432Z,10.02
2023-03-17T17:45:01.228Z,10.50
2023-03-17T17:46:33.791Z,9.32
2023-03-17T17:48:05.746Z,11.60
2023-03-17T17:49:37.854Z,11.63
2023-03-17T17:51:09.664Z,12.60
2023-03-17T17:52:41.413Z,12.45
2023-03-17T17:54:13.153Z,9.65
2023-03-17T17:55:46.946Z,11.15
2023-03-17T17:57:19.044Z,9.65
2023-03-17T17:58:51.492Z,8.85
2023-03-17T18:00:24.123Z,9.70
2023-03-17T18:01:56.581Z,11.02
2023-03-17T18:03:31.545Z,12.30
2023-03-17T18:05:06.010Z,9.55
2023-03-17T18:06:38.598Z,12.02
2023-03-17T18:08:13.680Z,9.90
2023-03-17T18:09:45.497Z,11.80
2023-03-17T18:11:18.054Z,13.20
2023-03-17T18:12:50.396Z,8.75
2023-03-17T18:14:22.753Z,10.43
2023-03-17T18:15:54.568Z,11.52
2023-03-17T18:17:27.379Z,11.07
2023-03-17T18:19:00.468Z,10.82
2023-03-17T18:20:32.591Z,11.07
2023-03-17T18:22:05.057Z,8.65
2023-03-17T18:23:37.117Z,9.23
2023-03-17T18:25:11.345Z,11.13
2023-03-17T18:26:43.188Z,9.13
2023-03-17T18:28:14.929Z,9.57
2023-03-17T18:29:47.422Z,9.52
2023-03-17T18:31:27.538Z,9.55
2023-03-17T18:33:15.089Z,11.00
2023-03-17T18:34:48.162Z,10.95
2023-03-17T18:36:21.615Z,10.07
2023-03-17T18:37:55.446Z,10.30
2023-03-17T18:39:27.662Z,9.15
2023-03-17T18:40:59.740Z,10.82
2023-03-17T18:42:32.009Z,12.52
2023-03-17T18:44:03.877Z,8.15
2023-03-17T18:45:35.621Z,8.20
2023-03-17T18:47:07.643Z,9.75
2023-03-17T18:48:40.111Z,10.00
2023-03-17T18:50:13.936Z,9.23
2023-03-17T18:51:45.623Z,8.68
2023-03-17T18:53:18.167Z,11.20
2023-03-17T18:54:49.915Z,9.50
2023-03-17T18:56:23.443Z,9.75
2023-03-17T18:57:55.251Z,8.32
2023-03-17T18:59:27.216Z,8.45
2023-03-17T19:01:02.094Z,9.07
2023-03-17T19:02:54.275Z,8.75
2023-03-17T19:05:58.315Z,9.27
2023-03-17T19:07:30.092Z,10.23
2023-03-17T19:09:02.337Z,8.95
2023-03-17T19:10:34.578Z,9.90
2023-03-17T19:12:10.186Z,7.70
2023-03-17T19:13:42.552Z,9.90
2023-03-17T19:15:14.915Z,11.65
2023-03-17T19:16:46.863Z,8.55
2023-03-17T19:18:18.741Z,9.85
2023-03-17T19:19:52.237Z,9.98
2023-03-17T19:21:24.765Z,8.32
2023-03-17T19:22:57.593Z,9.02
2023-03-17T19:24:31.232Z,8.88
2023-03-17T19:26:04.800Z,9.57
2023-03-17T19:27:37.547Z,8.18
2023-03-17T19:29:10.136Z,8.23
2023-03-17T19:30:45.178Z,8.75
2023-03-17T19:32:17.531Z,8.15
2023-03-17T19:33:49.261Z,8.40
2023-03-17T19:35:21.138Z,9.55
2023-03-17T19:36:53.860Z,7.13
2023-03-17T19:38:28.663Z,9.57
2023-03-17T19:40:00.566Z,9.13
2023-03-17T19:41:32.854Z,9.05
2023-03-17T19:43:06.761Z,6.45
2023-03-17T19:44:39.217Z,9.13
2023-03-17T19:46:12.033Z,8.65
2023-03-17T19:47:43.965Z,8.30
2023-03-17T19:49:16.657Z,7.90
2023-03-17T19:50:49.171Z,7.05
2023-03-17T19:52:22.088Z,11.00
2023-03-17T19:53:54.334Z,7.70
2023-03-17T19:55:27.099Z,7.47
2023-03-17T19:56:59.507Z,9.23
2023-03-17T19:58:31.323Z,9.40
2023-03-17T20:00:04.754Z,7.68
2023-03-17T20:01:42.426Z,10.32
2023-03-17T20:03:15.022Z,8.02
2023-03-17T20:04:48.586Z,7.15
2023-03-17T20:06:20.807Z,7.90
2023-03-17T20:07:52.586Z,9.50
2023-03-17T20:09:26.995Z,7.18
2023-03-17T20:10:59.284Z,7.47
2023-03-17T20:12:37.508Z,7.65
2023-03-17T20:14:09.331Z,7.57
2023-03-17T20:15:41.576Z,7.45
2023-03-17T20:17:14.648Z,7.13
2023-03-17T20:18:46.757Z,8.65
2023-03-17T20:20:18.530Z,7.78
2023-03-17T20:21:51.139Z,8.13
2023-03-17T20:23:23.541Z,7.53
2023-03-17T20:24:56.174Z,7.60
2023-03-17T20:26:28.784Z,6.53
2023-03-17T20:28:00.520Z,7.47
2023-03-17T20:29:36.024Z,9.73
2023-03-17T20:31:09.575Z,6.95
2023-03-17T20:32:41.464Z,8.73
2023-03-17T20:34:13.826Z,7.55
2023-03-17T20:35:49.013Z,7.05
2023-03-17T20:37:20.817Z,8.80
2023-03-17T20:38:53.410Z,9.50
2023-03-17T20:40:26.281Z,8.40
2023-03-17T20:41:58.098Z,9.48
2023-03-17T20:43:32.000Z,6.45
2023-03-17T20:45:04.555Z,8.25
2023-03-17T20:46:36.545Z,6.80
2023-03-17T20:48:10.726Z,6.53
2023-03-17T20:49:42.938Z,6.28
2023-03-17T20:51:16.880Z,7.93
2023-03-17T20:52:49.805Z,7.43
2023-03-17T20:54:23.372Z,6.47
2023-03-17T20:55:56.436Z,6.15
2023-03-17T20:57:29.009Z,7.38
2023-03-17T20:59:05.159Z,7.25
2023-03-17T21:00:38.876Z,6.20
2023-03-17T21:02:17.017Z,9.80
2023-03-17T21:03:50.126Z,7.55
2023-03-17T21:05:25.008Z,8.45
2023-03-17T21:06:57.535Z,7.30
2023-03-17T21:08:29.582Z,8.57
2023-03-17T21:10:02.379Z,7.35